Loos, Canada
Current Conditions -  °F | °C
As of 10:00 AM on Sunday 21 Dec 2014 (Local Time) from CYXS Reporting Station
Broken Clouds Broken Clouds  
Wind Chill: 24°   Ceiling: 11000
Heat Index: 32°   Visibility: 9mi
Dew Point: 32°   Wind: 9mph
Humidity: 100%   Direction: 180°S
Pressure: 29.54"   Gusts: NA
Location:  53.6°N, 120.72°W
Report Text: CYXS 211800Z AUTO 18008KT 9SM FEW075 BKN110 BKN130 00/M00 A2954 RMK SLP031
Loading
Personal Weather Stations






























Interactive Weather Map New forecast layout! Learn more

10-Day Weather Forecast

Advertisements
Track Severe Weather on mobile